sensor_id;sensor_type;location;lat;lon;timestamp;temperature;humidity
3488;DHT22;38546;48.170;11.724;2022-08-01T00:02:06;21.80;99.90
3488;DHT22;38546;48.170;11.724;2022-08-01T00:04:56;21.80;99.90
3488;DHT22;38546;48.170;11.724;2022-08-01T00:07:46;21.80;99.90
3488;DHT22;38546;48.170;11.724;2022-08-01T00:10:35;21.80;99.90
3488;DHT22;38546;48.170;11.724;2022-08-01T00:13:24;21.90;99.90
3488;DHT22;38546;48.170;11.724;2022-08-01T00:16:13;21.90;99.90
3488;DHT22;38546;48.170;11.724;2022-08-01T00:19:03;21.90;99.90
3488;DHT22;38546;48.170;11.724;2022-08-01T00:21:52;22.00;99.80
3488;DHT22;38546;48.170;11.724;2022-08-01T00:24:41;22.00;99.90
3488;DHT22;38546;48.170;11.724;2022-08-01T00:27:31;21.90;99.90
3488;DHT22;38546;48.170;11.724;2022-08-01T00:30:21;21.80;99.90
3488;DHT22;38546;48.170;11.724;2022-08-01T00:33:10;21.80;99.90
3488;DHT22;38546;48.170;11.724;2022-08-01T00:35:59;21.80;99.90
3488;DHT22;38546;48.170;11.724;2022-08-01T00:38:48;21.80;99.90
3488;DHT22;38546;48.170;11.724;2022-08-01T00:41:37;21.70;99.90
3488;DHT22;38546;48.170;11.724;2022-08-01T00:44:27;21.80;99.90
3488;DHT22;38546;48.170;11.724;2022-08-01T00:47:16;21.70;99.90
3488;DHT22;38546;48.170;11.724;2022-08-01T00:50:07;21.90;99.80
3488;DHT22;38546;48.170;11.724;2022-08-01T00:52:58;21.90;99.90
3488;DHT22;38546;48.170;11.724;2022-08-01T00:55:49;21.90;99.90
3488;DHT22;38546;48.170;11.724;2022-08-01T00:58:38;21.80;99.90
3488;DHT22;38546;48.170;11.724;2022-08-01T01:01:27;21.90;99.70
3488;DHT22;38546;48.170;11.724;2022-08-01T01:04:17;22.00;99.60
3488;DHT22;38546;48.170;11.724;2022-08-01T01:07:25;22.00;99.30
3488;DHT22;38546;48.170;11.724;2022-08-01T01:11:13;21.90;99.30
3488;DHT22;38546;48.170;11.724;2022-08-01T01:14:13;21.90;99.50
3488;DHT22;38546;48.170;11.724;2022-08-01T01:17:12;21.90;99.40
3488;DHT22;38546;48.170;11.724;2022-08-01T01:20:06;21.90;99.20
3488;DHT22;38546;48.170;11.724;2022-08-01T01:23:34;21.70;99.40
3488;DHT22;38546;48.170;11.724;2022-08-01T01:26:56;21.80;99.40
3488;DHT22;38546;48.170;11.724;2022-08-01T01:29:53;21.90;99.10
3488;DHT22;38546;48.170;11.724;2022-08-01T01:32:48;21.80;99.10
3488;DHT22;38546;48.170;11.724;2022-08-01T01:35:44;21.80;99.00
3488;DHT22;38546;48.170;11.724;2022-08-01T01:38:53;21.70;99.10
3488;DHT22;38546;48.170;11.724;2022-08-01T01:41:45;21.70;98.90
3488;DHT22;38546;48.170;11.724;2022-08-01T01:44:37;21.70;99.00
3488;DHT22;38546;48.170;11.724;2022-08-01T01:47:27;21.70;99.00
3488;DHT22;38546;48.170;11.724;2022-08-01T01:50:20;21.70;98.90
3488;DHT22;38546;48.170;11.724;2022-08-01T01:53:12;21.60;98.80
3488;DHT22;38546;48.170;11.724;2022-08-01T01:56:03;21.70;98.60
3488;DHT22;38546;48.170;11.724;2022-08-01T01:59:00;21.60;98.70
3488;DHT22;38546;48.170;11.724;2022-08-01T02:01:52;21.60;98.70
3488;DHT22;38546;48.170;11.724;2022-08-01T02:04:45;21.70;98.60
3488;DHT22;38546;48.170;11.724;2022-08-01T02:07:37;21.60;98.70
3488;DHT22;38546;48.170;11.724;2022-08-01T02:10:28;21.50;98.90
3488;DHT22;38546;48.170;11.724;2022-08-01T02:13:18;21.50;98.90
3488;DHT22;38546;48.170;11.724;2022-08-01T02:16:09;21.70;99.10
3488;DHT22;38546;48.170;11.724;2022-08-01T02:19:00;21.70;98.40
3488;DHT22;38546;48.170;11.724;2022-08-01T02:21:57;21.70;98.50
3488;DHT22;38546;48.170;11.724;2022-08-01T02:24:54;21.70;98.50
3488;DHT22;38546;48.170;11.724;2022-08-01T02:27:58;21.50;98.60
3488;DHT22;38546;48.170;11.724;2022-08-01T02:30:50;21.50;98.70
3488;DHT22;38546;48.170;11.724;2022-08-01T02:33:43;21.80;98.30
3488;DHT22;38546;48.170;11.724;2022-08-01T02:36:35;21.70;98.40
3488;DHT22;38546;48.170;11.724;2022-08-01T02:39:27;21.70;98.50
3488;DHT22;38546;48.170;11.724;2022-08-01T02:42:18;21.70;98.50
3488;DHT22;38546;48.170;11.724;2022-08-01T02:45:09;21.90;98.10
3488;DHT22;38546;48.170;11.724;2022-08-01T02:48:11;21.70;98.20
3488;DHT22;38546;48.170;11.724;2022-08-01T02:51:02;21.70;98.10
3488;DHT22;38546;48.170;11.724;2022-08-01T02:53:53;21.70;97.90
3488;DHT22;38546;48.170;11.724;2022-08-01T02:56:44;21.70;97.70
3488;DHT22;38546;48.170;11.724;2022-08-01T02:59:38;21.70;97.80
3488;DHT22;38546;48.170;11.724;2022-08-01T03:02:28;21.80;97.80
3488;DHT22;38546;48.170;11.724;2022-08-01T03:05:18;21.80;97.60
3488;DHT22;38546;48.170;11.724;2022-08-01T03:08:10;21.70;97.60
3488;DHT22;38546;48.170;11.724;2022-08-01T03:11:01;21.80;97.40
3488;DHT22;38546;48.170;11.724;2022-08-01T03:13:54;21.80;97.40
3488;DHT22;38546;48.170;11.724;2022-08-01T03:16:46;21.80;97.40
3488;DHT22;38546;48.170;11.724;2022-08-01T03:19:36;21.70;97.50
3488;DHT22;38546;48.170;11.724;2022-08-01T03:22:29;21.70;97.50
3488;DHT22;38546;48.170;11.724;2022-08-01T03:25:20;21.70;97.40
3488;DHT22;38546;48.170;11.724;2022-08-01T03:28:13;21.50;97.50
3488;DHT22;38546;48.170;11.724;2022-08-01T03:31:03;21.40;97.80
3488;DHT22;38546;48.170;11.724;2022-08-01T03:33:53;21.50;97.90
3488;DHT22;38546;48.170;11.724;2022-08-01T03:37:05;21.40;97.70
3488;DHT22;38546;48.170;11.724;2022-08-01T03:40:45;21.40;98.00
3488;DHT22;38546;48.170;11.724;2022-08-01T03:43:41;21.50;97.60
3488;DHT22;38546;48.170;11.724;2022-08-01T03:46:48;21.40;97.60
3488;DHT22;38546;48.170;11.724;2022-08-01T03:49:43;21.20;97.80
3488;DHT22;38546;48.170;11.724;2022-08-01T03:52:34;21.10;98.30
3488;DHT22;38546;48.170;11.724;2022-08-01T03:55:28;21.20;97.90
3488;DHT22;38546;48.170;11.724;2022-08-01T03:58:17;21.10;98.10
3488;DHT22;38546;48.170;11.724;2022-08-01T04:01:08;21.00;98.10
3488;DHT22;38546;48.170;11.724;2022-08-01T04:04:00;20.90;98.40
3488;DHT22;38546;48.170;11.724;2022-08-01T04:06:50;21.00;98.20
3488;DHT22;38546;48.170;11.724;2022-08-01T04:09:43;21.00;98.40
3488;DHT22;38546;48.170;11.724;2022-08-01T04:12:34;21.00;98.10
3488;DHT22;38546;48.170;11.724;2022-08-01T04:15:24;20.90;98.20
3488;DHT22;38546;48.170;11.724;2022-08-01T04:18:13;20.90;98.30
3488;DHT22;38546;48.170;11.724;2022-08-01T04:21:03;21.00;98.30
3488;DHT22;38546;48.170;11.724;2022-08-01T04:23:54;20.90;98.30
3488;DHT22;38546;48.170;11.724;2022-08-01T04:26:46;20.90;98.40
3488;DHT22;38546;48.170;11.724;2022-08-01T04:29:38;20.90;98.50
3488;DHT22;38546;48.170;11.724;2022-08-01T04:32:31;20.80;98.70
3488;DHT22;38546;48.170;11.724;2022-08-01T04:35:25;20.90;98.60
3488;DHT22;38546;48.170;11.724;2022-08-01T04:38:20;21.00;98.60
3488;DHT22;38546;48.170;11.724;2022-08-01T04:41:12;21.10;98.50
3488;DHT22;38546;48.170;11.724;2022-08-01T04:44:02;21.00;98.60
3488;DHT22;38546;48.170;11.724;2022-08-01T04:46:53;21.00;98.70
3488;DHT22;38546;48.170;11.724;2022-08-01T04:49:45;21.10;98.80
3488;DHT22;38546;48.170;11.724;2022-08-01T04:52:36;21.10;98.60
3488;DHT22;38546;48.170;11.724;2022-08-01T04:55:26;21.20;98.70
3488;DHT22;38546;48.170;11.724;2022-08-01T04:58:15;21.10;98.70
3488;DHT22;38546;48.170;11.724;2022-08-01T05:01:05;21.30;98.30
3488;DHT22;38546;48.170;11.724;2022-08-01T05:03:54;21.40;98.40
3488;DHT22;38546;48.170;11.724;2022-08-01T05:06:44;21.40;98.50
3488;DHT22;38546;48.170;11.724;2022-08-01T05:09:34;21.50;98.40
3488;DHT22;38546;48.170;11.724;2022-08-01T05:12:25;21.60;98.40
3488;DHT22;38546;48.170;11.724;2022-08-01T05:15:14;21.70;98.00
3488;DHT22;38546;48.170;11.724;2022-08-01T05:18:03;21.70;97.90
3488;DHT22;38546;48.170;11.724;2022-08-01T05:20:53;21.90;98.40
3488;DHT22;38546;48.170;11.724;2022-08-01T05:23:42;21.90;97.80
3488;DHT22;38546;48.170;11.724;2022-08-01T05:26:31;22.00;97.60
3488;DHT22;38546;48.170;11.724;2022-08-01T05:29:20;22.20;97.60
3488;DHT22;38546;48.170;11.724;2022-08-01T05:32:10;22.30;97.50
3488;DHT22;38546;48.170;11.724;2022-08-01T05:35:00;22.20;97.20
3488;DHT22;38546;48.170;11.724;2022-08-01T05:37:50;22.30;97.00
3488;DHT22;38546;48.170;11.724;2022-08-01T05:40:39;22.30;97.10
3488;DHT22;38546;48.170;11.724;2022-08-01T05:43:29;22.20;97.40
3488;DHT22;38546;48.170;11.724;2022-08-01T05:46:18;22.30;97.20
3488;DHT22;38546;48.170;11.724;2022-08-01T05:49:07;22.20;97.40
3488;DHT22;38546;48.170;11.724;2022-08-01T05:51:57;22.10;97.40
3488;DHT22;38546;48.170;11.724;2022-08-01T05:54:47;22.10;97.40
3488;DHT22;38546;48.170;11.724;2022-08-01T05:57:36;22.10;97.50
3488;DHT22;38546;48.170;11.724;2022-08-01T06:00:25;22.30;97.10
3488;DHT22;38546;48.170;11.724;2022-08-01T06:03:15;22.40;97.10
3488;DHT22;38546;48.170;11.724;2022-08-01T06:06:05;22.50;96.90
3488;DHT22;38546;48.170;11.724;2022-08-01T06:08:54;22.40;96.90
3488;DHT22;38546;48.170;11.724;2022-08-01T06:11:44;22.40;97.30
3488;DHT22;38546;48.170;11.724;2022-08-01T06:14:33;22.50;97.20
3488;DHT22;38546;48.170;11.724;2022-08-01T06:17:22;22.60;97.10
3488;DHT22;38546;48.170;11.724;2022-08-01T06:20:11;22.70;96.80
3488;DHT22;38546;48.170;11.724;2022-08-01T06:23:00;22.90;96.80
3488;DHT22;38546;48.170;11.724;2022-08-01T06:25:52;22.90;96.40
3488;DHT22;38546;48.170;11.724;2022-08-01T06:28:43;22.90;96.50
3488;DHT22;38546;48.170;11.724;2022-08-01T06:31:32;23.10;96.70
3488;DHT22;38546;48.170;11.724;2022-08-01T06:34:21;23.10;96.60
3488;DHT22;38546;48.170;11.724;2022-08-01T06:37:11;23.40;96.40
3488;DHT22;38546;48.170;11.724;2022-08-01T06:40:07;23.50;96.30
3488;DHT22;38546;48.170;11.724;2022-08-01T06:42:57;23.70;96.10
3488;DHT22;38546;48.170;11.724;2022-08-01T06:45:47;23.60;96.20
3488;DHT22;38546;48.170;11.724;2022-08-01T06:48:37;23.80;95.90
3488;DHT22;38546;48.170;11.724;2022-08-01T06:51:28;24.10;95.80
3488;DHT22;38546;48.170;11.724;2022-08-01T06:54:16;24.20;95.50
3488;DHT22;38546;48.170;11.724;2022-08-01T06:57:05;24.30;95.80
3488;DHT22;38546;48.170;11.724;2022-08-01T06:59:55;24.40;95.60
3488;DHT22;38546;48.170;11.724;2022-08-01T07:02:45;24.50;95.50
3488;DHT22;38546;48.170;11.724;2022-08-01T07:05:34;24.70;95.30
3488;DHT22;38546;48.170;11.724;2022-08-01T07:08:23;24.60;95.20
3488;DHT22;38546;48.170;11.724;2022-08-01T07:11:12;24.70;95.10
3488;DHT22;38546;48.170;11.724;2022-08-01T07:14:01;24.60;95.00
3488;DHT22;38546;48.170;11.724;2022-08-01T07:16:50;24.60;95.10
3488;DHT22;38546;48.170;11.724;2022-08-01T07:19:39;24.70;95.00
3488;DHT22;38546;48.170;11.724;2022-08-01T07:22:28;24.70;95.20
3488;DHT22;38546;48.170;11.724;2022-08-01T07:25:17;24.80;95.30
3488;DHT22;38546;48.170;11.724;2022-08-01T07:28:06;24.90;94.70
3488;DHT22;38546;48.170;11.724;2022-08-01T07:30:56;24.80;94.90
3488;DHT22;38546;48.170;11.724;2022-08-01T07:33:45;24.90;95.20
3488;DHT22;38546;48.170;11.724;2022-08-01T07:36:34;24.90;95.30
3488;DHT22;38546;48.170;11.724;2022-08-01T07:39:24;25.00;95.00
3488;DHT22;38546;48.170;11.724;2022-08-01T07:42:13;25.00;95.10
3488;DHT22;38546;48.170;11.724;2022-08-01T07:45:02;25.20;95.20
3488;DHT22;38546;48.170;11.724;2022-08-01T07:47:52;25.30;95.00
3488;DHT22;38546;48.170;11.724;2022-08-01T07:50:41;25.20;95.30
3488;DHT22;38546;48.170;11.724;2022-08-01T07:53:30;25.40;94.40
3488;DHT22;38546;48.170;11.724;2022-08-01T07:56:19;25.40;94.60
3488;DHT22;38546;48.170;11.724;2022-08-01T07:59:09;25.40;94.70
3488;DHT22;38546;48.170;11.724;2022-08-01T08:01:58;25.50;95.20
3488;DHT22;38546;48.170;11.724;2022-08-01T08:04:47;25.80;94.30
3488;DHT22;38546;48.170;11.724;2022-08-01T08:07:37;25.90;94.20
3488;DHT22;38546;48.170;11.724;2022-08-01T08:10:26;26.00;94.00
3488;DHT22;38546;48.170;11.724;2022-08-01T08:13:15;26.00;94.30
3488;DHT22;38546;48.170;11.724;2022-08-01T08:16:04;26.10;94.10
3488;DHT22;38546;48.170;11.724;2022-08-01T08:18:53;26.00;93.50
3488;DHT22;38546;48.170;11.724;2022-08-01T08:21:43;26.10;94.00
3488;DHT22;38546;48.170;11.724;2022-08-01T08:24:33;26.00;94.20
3488;DHT22;38546;48.170;11.724;2022-08-01T08:27:23;26.20;93.80
3488;DHT22;38546;48.170;11.724;2022-08-01T08:30:14;26.00;93.80
3488;DHT22;38546;48.170;11.724;2022-08-01T08:33:03;25.80;93.60
3488;DHT22;38546;48.170;11.724;2022-08-01T08:35:52;25.90;94.30
3488;DHT22;38546;48.170;11.724;2022-08-01T08:38:43;26.00;93.60
3488;DHT22;38546;48.170;11.724;2022-08-01T08:41:33;26.20;93.40
3488;DHT22;38546;48.170;11.724;2022-08-01T08:44:23;26.30;93.80
3488;DHT22;38546;48.170;11.724;2022-08-01T08:47:13;26.40;93.90
3488;DHT22;38546;48.170;11.724;2022-08-01T08:50:05;26.40;94.40
3488;DHT22;38546;48.170;11.724;2022-08-01T08:52:55;26.70;93.70
3488;DHT22;38546;48.170;11.724;2022-08-01T08:55:45;26.70;93.20
3488;DHT22;38546;48.170;11.724;2022-08-01T08:58:35;26.60;93.30
3488;DHT22;38546;48.170;11.724;2022-08-01T09:01:26;26.60;93.30
3488;DHT22;38546;48.170;11.724;2022-08-01T09:04:16;26.70;92.80
3488;DHT22;38546;48.170;11.724;2022-08-01T09:07:06;26.60;92.80
3488;DHT22;38546;48.170;11.724;2022-08-01T09:09:57;26.60;92.90
3488;DHT22;38546;48.170;11.724;2022-08-01T09:13:12;26.70;92.50
3488;DHT22;38546;48.170;11.724;2022-08-01T09:16:05;26.90;92.30
3488;DHT22;38546;48.170;11.724;2022-08-01T09:19:16;26.80;91.80
3488;DHT22;38546;48.170;11.724;2022-08-01T09:22:12;26.70;92.40
3488;DHT22;38546;48.170;11.724;2022-08-01T09:25:10;26.60;93.00
3488;DHT22;38546;48.170;11.724;2022-08-01T09:28:04;26.90;93.30
3488;DHT22;38546;48.170;11.724;2022-08-01T09:30:58;27.00;92.50
3488;DHT22;38546;48.170;11.724;2022-08-01T09:33:56;26.90;92.10
3488;DHT22;38546;48.170;11.724;2022-08-01T09:36:55;26.70;92.00
3488;DHT22;38546;48.170;11.724;2022-08-01T09:39:54;27.00;91.90
3488;DHT22;38546;48.170;11.724;2022-08-01T09:42:46;27.10;93.20
3488;DHT22;38546;48.170;11.724;2022-08-01T09:45:41;27.30;91.70
3488;DHT22;38546;48.170;11.724;2022-08-01T09:48:31;27.60;91.50
3488;DHT22;38546;48.170;11.724;2022-08-01T09:51:33;27.60;91.30
3488;DHT22;38546;48.170;11.724;2022-08-01T09:54:29;27.50;91.70
3488;DHT22;38546;48.170;11.724;2022-08-01T09:57:20;27.50;90.30
3488;DHT22;38546;48.170;11.724;2022-08-01T10:00:17;27.40;90.60
3488;DHT22;38546;48.170;11.724;2022-08-01T10:03:22;27.40;91.30
3488;DHT22;38546;48.170;11.724;2022-08-01T10:06:20;27.60;91.70
3488;DHT22;38546;48.170;11.724;2022-08-01T10:09:12;28.00;90.60
3488;DHT22;38546;48.170;11.724;2022-08-01T10:12:03;28.20;90.10
3488;DHT22;38546;48.170;11.724;2022-08-01T10:14:53;28.10;90.70
3488;DHT22;38546;48.170;11.724;2022-08-01T10:17:53;28.10;90.70
3488;DHT22;38546;48.170;11.724;2022-08-01T10:20:45;28.20;91.70
3488;DHT22;38546;48.170;11.724;2022-08-01T10:23:37;28.50;90.70
3488;DHT22;38546;48.170;11.724;2022-08-01T10:26:27;28.50;89.00
3488;DHT22;38546;48.170;11.724;2022-08-01T10:29:20;28.40;89.80
3488;DHT22;38546;48.170;11.724;2022-08-01T10:32:10;28.40;89.40
3488;DHT22;38546;48.170;11.724;2022-08-01T10:35:00;28.30;89.40
3488;DHT22;38546;48.170;11.724;2022-08-01T10:37:50;28.40;90.20
3488;DHT22;38546;48.170;11.724;2022-08-01T10:40:45;28.60;88.70
3488;DHT22;38546;48.170;11.724;2022-08-01T10:43:35;28.90;89.30
3488;DHT22;38546;48.170;11.724;2022-08-01T10:46:25;29.20;90.00
3488;DHT22;38546;48.170;11.724;2022-08-01T10:49:17;29.70;88.70
3488;DHT22;38546;48.170;11.724;2022-08-01T10:52:15;29.90;88.90
3488;DHT22;38546;48.170;11.724;2022-08-01T10:55:08;29.70;85.80
3488;DHT22;38546;48.170;11.724;2022-08-01T10:57:58;29.20;87.00
3488;DHT22;38546;48.170;11.724;2022-08-01T11:01:16;29.40;87.20
3488;DHT22;38546;48.170;11.724;2022-08-01T11:04:14;29.50;86.30
3488;DHT22;38546;48.170;11.724;2022-08-01T11:07:13;29.90;88.10
3488;DHT22;38546;48.170;11.724;2022-08-01T11:10:34;29.90;87.40
3488;DHT22;38546;48.170;11.724;2022-08-01T11:14:01;29.80;84.40
3488;DHT22;38546;48.170;11.724;2022-08-01T11:17:33;29.50;85.30
3488;DHT22;38546;48.170;11.724;2022-08-01T11:20:36;29.40;85.00
3488;DHT22;38546;48.170;11.724;2022-08-01T11:23:30;29.60;87.80
3488;DHT22;38546;48.170;11.724;2022-08-01T11:26:21;29.80;85.40
3488;DHT22;38546;48.170;11.724;2022-08-01T11:29:16;29.60;83.30
3488;DHT22;38546;48.170;11.724;2022-08-01T11:32:26;29.50;84.40
3488;DHT22;38546;48.170;11.724;2022-08-01T11:35:16;29.50;82.90
3488;DHT22;38546;48.170;11.724;2022-08-01T11:38:26;29.50;84.50
3488;DHT22;38546;48.170;11.724;2022-08-01T11:41:31;29.60;84.20
3488;DHT22;38546;48.170;11.724;2022-08-01T11:44:23;29.80;84.90
3488;DHT22;38546;48.170;11.724;2022-08-01T11:47:16;30.30;82.30
3488;DHT22;38546;48.170;11.724;2022-08-01T11:50:06;30.70;82.60
3488;DHT22;38546;48.170;11.724;2022-08-01T11:53:05;30.60;82.10
3488;DHT22;38546;48.170;11.724;2022-08-01T11:55:55;30.60;82.90
3488;DHT22;38546;48.170;11.724;2022-08-01T11:58:46;30.10;80.70
3488;DHT22;38546;48.170;11.724;2022-08-01T12:01:35;29.60;82.40
3488;DHT22;38546;48.170;11.724;2022-08-01T12:04:25;29.70;83.00
3488;DHT22;38546;48.170;11.724;2022-08-01T12:07:15;29.30;82.00
3488;DHT22;38546;48.170;11.724;2022-08-01T12:10:13;29.20;82.60
3488;DHT22;38546;48.170;11.724;2022-08-01T12:13:05;29.10;82.20
3488;DHT22;38546;48.170;11.724;2022-08-01T12:15:55;29.70;80.40
3488;DHT22;38546;48.170;11.724;2022-08-01T12:18:45;29.90;78.70
3488;DHT22;38546;48.170;11.724;2022-08-01T12:21:34;30.10;79.60
3488;DHT22;38546;48.170;11.724;2022-08-01T12:24:23;30.00;77.60
3488;DHT22;38546;48.170;11.724;2022-08-01T12:27:24;29.80;78.10
3488;DHT22;38546;48.170;11.724;2022-08-01T12:30:16;29.70;79.30
3488;DHT22;38546;48.170;11.724;2022-08-01T12:33:09;29.60;80.10
3488;DHT22;38546;48.170;11.724;2022-08-01T12:35:59;29.50;81.20
3488;DHT22;38546;48.170;11.724;2022-08-01T12:38:53;29.40;80.30
3488;DHT22;38546;48.170;11.724;2022-08-01T12:41:43;29.50;80.40
3488;DHT22;38546;48.170;11.724;2022-08-01T12:44:33;29.60;77.10
3488;DHT22;38546;48.170;11.724;2022-08-01T12:47:23;29.60;78.50
3488;DHT22;38546;48.170;11.724;2022-08-01T12:50:20;29.60;78.30
3488;DHT22;38546;48.170;11.724;2022-08-01T12:53:12;29.50;79.40
3488;DHT22;38546;48.170;11.724;2022-08-01T12:56:03;29.80;79.20
3488;DHT22;38546;48.170;11.724;2022-08-01T12:58:53;29.90;77.50
3488;DHT22;38546;48.170;11.724;2022-08-01T13:01:43;29.90;79.00
3488;DHT22;38546;48.170;11.724;2022-08-01T13:04:32;30.00;79.30
3488;DHT22;38546;48.170;11.724;2022-08-01T13:07:21;30.00;79.20
3488;DHT22;38546;48.170;11.724;2022-08-01T13:10:13;29.90;79.30
3488;DHT22;38546;48.170;11.724;2022-08-01T13:13:03;29.80;77.80
3488;DHT22;38546;48.170;11.724;2022-08-01T13:16:03;29.40;78.40
3488;DHT22;38546;48.170;11.724;2022-08-01T13:18:55;29.40;76.90
3488;DHT22;38546;48.170;11.724;2022-08-01T13:21:56;29.10;77.10
3488;DHT22;38546;48.170;11.724;2022-08-01T13:24:46;28.70;78.80
3488;DHT22;38546;48.170;11.724;2022-08-01T13:27:36;28.40;79.30
3488;DHT22;38546;48.170;11.724;2022-08-01T13:30:25;28.30;80.30
3488;DHT22;38546;48.170;11.724;2022-08-01T13:33:14;28.10;81.60
3488;DHT22;38546;48.170;11.724;2022-08-01T13:36:04;28.00;82.40
3488;DHT22;38546;48.170;11.724;2022-08-01T13:38:54;27.80;83.30
3488;DHT22;38546;48.170;11.724;2022-08-01T13:42:44;27.80;83.40
3488;DHT22;38546;48.170;11.724;2022-08-01T13:45:34;27.90;83.00
3488;DHT22;38546;48.170;11.724;2022-08-01T13:48:23;27.80;83.30
3488;DHT22;38546;48.170;11.724;2022-08-01T13:51:12;27.90;83.30
3488;DHT22;38546;48.170;11.724;2022-08-01T13:54:02;27.70;83.20
3488;DHT22;38546;48.170;11.724;2022-08-01T13:56:52;27.60;84.20
3488;DHT22;38546;48.170;11.724;2022-08-01T13:59:42;27.60;83.40
3488;DHT22;38546;48.170;11.724;2022-08-01T14:02:32;27.60;84.10
3488;DHT22;38546;48.170;11.724;2022-08-01T14:05:21;27.50;84.70
3488;DHT22;38546;48.170;11.724;2022-08-01T14:08:11;27.30;84.10
3488;DHT22;38546;48.170;11.724;2022-08-01T14:11:00;27.20;84.00
3488;DHT22;38546;48.170;11.724;2022-08-01T14:13:49;27.20;84.90
3488;DHT22;38546;48.170;11.724;2022-08-01T14:16:38;27.30;85.00
3488;DHT22;38546;48.170;11.724;2022-08-01T14:19:28;27.40;84.50
3488;DHT22;38546;48.170;11.724;2022-08-01T14:22:18;27.20;84.30
3488;DHT22;38546;48.170;11.724;2022-08-01T14:25:08;27.30;85.10
3488;DHT22;38546;48.170;11.724;2022-08-01T14:27:58;27.20;83.90
3488;DHT22;38546;48.170;11.724;2022-08-01T14:30:47;27.20;84.90
3488;DHT22;38546;48.170;11.724;2022-08-01T14:33:36;27.20;84.80
3488;DHT22;38546;48.170;11.724;2022-08-01T14:36:25;27.30;83.90
3488;DHT22;38546;48.170;11.724;2022-08-01T14:39:15;27.20;84.30
3488;DHT22;38546;48.170;11.724;2022-08-01T14:42:05;27.20;84.30
3488;DHT22;38546;48.170;11.724;2022-08-01T14:44:55;27.30;84.70
3488;DHT22;38546;48.170;11.724;2022-08-01T14:47:44;27.40;84.40
3488;DHT22;38546;48.170;11.724;2022-08-01T14:50:34;27.60;84.20
3488;DHT22;38546;48.170;11.724;2022-08-01T14:53:25;27.70;84.80
3488;DHT22;38546;48.170;11.724;2022-08-01T14:56:15;27.80;86.20
3488;DHT22;38546;48.170;11.724;2022-08-01T14:59:04;27.90;87.60
3488;DHT22;38546;48.170;11.724;2022-08-01T15:01:53;27.80;88.40
3488;DHT22;38546;48.170;11.724;2022-08-01T15:04:43;27.70;90.00
3488;DHT22;38546;48.170;11.724;2022-08-01T15:07:37;27.90;88.40
3488;DHT22;38546;48.170;11.724;2022-08-01T15:10:27;27.60;89.50
3488;DHT22;38546;48.170;11.724;2022-08-01T15:13:16;27.50;90.30
3488;DHT22;38546;48.170;11.724;2022-08-01T15:16:06;27.30;90.20
3488;DHT22;38546;48.170;11.724;2022-08-01T15:18:55;27.20;90.30
3488;DHT22;38546;48.170;11.724;2022-08-01T15:21:44;26.80;90.80
3488;DHT22;38546;48.170;11.724;2022-08-01T15:24:34;27.00;90.70
3488;DHT22;38546;48.170;11.724;2022-08-01T15:27:24;26.70;90.40
3488;DHT22;38546;48.170;11.724;2022-08-01T15:30:14;26.50;90.40
3488;DHT22;38546;48.170;11.724;2022-08-01T15:33:03;26.30;90.60
3488;DHT22;38546;48.170;11.724;2022-08-01T15:35:53;26.30;90.70
3488;DHT22;38546;48.170;11.724;2022-08-01T15:38:42;26.20;91.20
3488;DHT22;38546;48.170;11.724;2022-08-01T15:41:30;26.00;91.50
3488;DHT22;38546;48.170;11.724;2022-08-01T15:44:20;25.70;91.90
3488;DHT22;38546;48.170;11.724;2022-08-01T15:47:10;25.50;92.60
3488;DHT22;38546;48.170;11.724;2022-08-01T15:49:59;25.40;94.10
3488;DHT22;38546;48.170;11.724;2022-08-01T15:52:50;24.90;95.20
3488;DHT22;38546;48.170;11.724;2022-08-01T15:55:39;24.30;96.90
3488;DHT22;38546;48.170;11.724;2022-08-01T15:58:29;23.70;98.20
3488;DHT22;38546;48.170;11.724;2022-08-01T16:01:18;23.30;99.30
3488;DHT22;38546;48.170;11.724;2022-08-01T16:04:08;23.00;99.90
3488;DHT22;38546;48.170;11.724;2022-08-01T16:06:57;22.60;99.90
3488;DHT22;38546;48.170;11.724;2022-08-01T16:09:46;22.30;99.90
3488;DHT22;38546;48.170;11.724;2022-08-01T16:12:35;22.10;99.90
3488;DHT22;38546;48.170;11.724;2022-08-01T16:15:24;21.90;99.90
3488;DHT22;38546;48.170;11.724;2022-08-01T16:18:13;21.80;99.90
3488;DHT22;38546;48.170;11.724;2022-08-01T16:21:04;21.70;99.90
3488;DHT22;38546;48.170;11.724;2022-08-01T16:23:54;21.70;99.90
3488;DHT22;38546;48.170;11.724;2022-08-01T16:26:42;21.70;99.90
3488;DHT22;38546;48.170;11.724;2022-08-01T16:29:32;21.80;99.90
3488;DHT22;38546;48.170;11.724;2022-08-01T16:32:23;21.90;99.90
3488;DHT22;38546;48.170;11.724;2022-08-01T16:35:13;22.00;99.90
3488;DHT22;38546;48.170;11.724;2022-08-01T16:38:04;22.00;99.90
3488;DHT22;38546;48.170;11.724;2022-08-01T16:40:53;22.10;99.90
3488;DHT22;38546;48.170;11.724;2022-08-01T16:43:43;22.10;99.90
3488;DHT22;38546;48.170;11.724;2022-08-01T16:46:32;22.30;99.90
3488;DHT22;38546;48.170;11.724;2022-08-01T16:49:21;22.60;99.90
3488;DHT22;38546;48.170;11.724;2022-08-01T16:52:10;22.60;99.90
3488;DHT22;38546;48.170;11.724;2022-08-01T16:55:00;22.60;99.90
3488;DHT22;38546;48.170;11.724;2022-08-01T16:57:49;22.70;99.90
3488;DHT22;38546;48.170;11.724;2022-08-01T17:00:40;22.70;99.90
3488;DHT22;38546;48.170;11.724;2022-08-01T17:03:32;22.70;99.90
3488;DHT22;38546;48.170;11.724;2022-08-01T17:06:21;22.70;99.90
3488;DHT22;38546;48.170;11.724;2022-08-01T17:09:10;22.80;99.90
3488;DHT22;38546;48.170;11.724;2022-08-01T17:11:59;22.80;99.90
3488;DHT22;38546;48.170;11.724;2022-08-01T17:14:49;22.80;99.90
3488;DHT22;38546;48.170;11.724;2022-08-01T17:17:38;22.80;99.90
3488;DHT22;38546;48.170;11.724;2022-08-01T17:20:28;22.70;99.90
3488;DHT22;38546;48.170;11.724;2022-08-01T17:23:18;22.70;99.90
3488;DHT22;38546;48.170;11.724;2022-08-01T17:26:07;22.70;99.90
3488;DHT22;38546;48.170;11.724;2022-08-01T17:28:56;22.80;99.90
3488;DHT22;38546;48.170;11.724;2022-08-01T17:31:46;22.70;99.90
3488;DHT22;38546;48.170;11.724;2022-08-01T17:34:34;22.60;99.90
3488;DHT22;38546;48.170;11.724;2022-08-01T17:37:25;22.70;99.90
3488;DHT22;38546;48.170;11.724;2022-08-01T17:40:14;22.70;99.90
3488;DHT22;38546;48.170;11.724;2022-08-01T17:43:03;22.80;99.90
3488;DHT22;38546;48.170;11.724;2022-08-01T17:45:52;22.80;99.90
3488;DHT22;38546;48.170;11.724;2022-08-01T17:48:42;22.80;99.90
3488;DHT22;38546;48.170;11.724;2022-08-01T17:51:32;22.90;99.90
3488;DHT22;38546;48.170;11.724;2022-08-01T17:54:21;22.90;99.90
3488;DHT22;38546;48.170;11.724;2022-08-01T17:57:10;22.90;99.90
3488;DHT22;38546;48.170;11.724;2022-08-01T18:00:00;22.80;99.90
3488;DHT22;38546;48.170;11.724;2022-08-01T18:02:50;22.70;99.90
3488;DHT22;38546;48.170;11.724;2022-08-01T18:05:39;22.70;99.90
3488;DHT22;38546;48.170;11.724;2022-08-01T18:08:28;22.60;99.90